Hargill, Texas
Current Conditions -  °F | °C
As of 5:15 AM on Wednesday 26 Nov 2014 (Local Time) from KEBG Reporting Station
Clear Clear  
Wind Chill: 43°   Ceiling: Unl
Heat Index: 43°   Visibility: 10mi
Dew Point: 38°   Wind: 3mph
Humidity: 83%   Direction: 220°SW
Pressure: 30.28"   Gusts: NA
Location:  26.44°N, 98.01°W
Report Text: KEBG 261115Z AUTO 22003KT 10SM CLR 06/04 A3028 RMK AO2 T00630036
Loading
Personal Weather Stations






























Interactive Weather Map New forecast layout! Learn more

10-Day Weather Forecast

Advertisements
Track Severe Weather on mobile